^^
Station Historical Data
Daily Summary for May 15, 2017 Units:  Both    English   Metric
« Previous Day
Next Day »
Daily Weekly Monthly Yearly Custom
  High: Low: Average:
Temperature: 75.0 °F /  23.9 °C 45.9 °F /  7.7 °C 59.6 °F /  15.3 °C
Dew Point: 35.4 °F /  1.9 °C 20.7 °F /  -6.3 °C 28.1 °F /  -2.2 °C
Humidity: 56% 14% 33%
Wind Speed: 10.1mph /  16.3km/h - 1mph /  1.6km/h
Wind Gust: 12.0mph /  19.3km/h - -
Wind- - SE
Pressure: 30.13 in /  1020.2 hPa 30.02 in /  1016.5 hPa -
Precipitation: 0.00 in /  0 mm    
Historical Graphs
 
 
Tabular Data for May 15, 2017
Time Temperature Dew Point Pressure Wind Wind Speed Wind Gust Humidity Rainfall Rate (Hourly) solar Conditions
00:05 50.9 °F /  10.5 °C 32.4 °F /  0.2 °C 30.07in /  1018.2hPa Calm     49% 0.00in /  0mm 0.0 W/m2
00:12 50.7 °F /  10.4 °C 31.8 °F /  -0.1 °C 30.07in /  1018.2hPa Calm   2.0mph /  3.2km/h 48% 0.00in /  0mm 0.0 W/m2
00:18 50.7 °F /  10.4 °C 31.8 °F /  -0.1 °C 30.07in /  1018.2hPa Calm   2.0mph /  3.2km/h 48% 0.00in /  0mm 0.0 W/m2
00:24 50.7 °F /  10.4 °C 31.8 °F /  -0.1 °C 30.07in /  1018.2hPa Calm   3.0mph /  4.8km/h 48% 0.00in /  0mm 0.0 W/m2
00:30 50.5 °F /  10.3 °C 31.6 °F /  -0.2 °C 30.07in /  1018.2hPa Calm   1.0mph /  1.6km/h 48% 0.00in /  0mm 0.0 W/m2
00:36 50.5 °F /  10.3 °C 31.6 °F /  -0.2 °C 30.07in /  1018.2hPa Calm   2.0mph /  3.2km/h 48% 0.00in /  0mm 0.0 W/m2
00:42 50.4 °F /  10.2 °C 31.5 °F /  -0.3 °C 30.07in /  1018.2hPa Calm   1.0mph /  1.6km/h 48% 0.00in /  0mm 0.0 W/m2
00:48 50.4 °F /  10.2 °C 31.5 °F /  -0.3 °C 30.07in /  1018.2hPa Calm   2.0mph /  3.2km/h 48% 0.00in /  0mm 0.0 W/m2
00:55 50.4 °F /  10.2 °C 30.9 °F /  -0.6 °C 30.07in /  1018.2hPa Calm     47% 0.00in /  0mm 0.0 W/m2
01:01 50.4 °F /  10.2 °C 31.5 °F /  -0.3 °C 30.07in /  1018.2hPa Calm     48% 0.00in /  0mm 0.0 W/m2
01:07 49.8 °F /  9.9 °C 31.5 °F /  -0.3 °C 30.07in /  1018.2hPa Calm   1.0mph /  1.6km/h 49% 0.00in /  0mm 0.0 W/m2
01:13 49.5 °F /  9.7 °C 31.1 °F /  -0.5 °C 30.07in /  1018.2hPa Calm   1.0mph /  1.6km/h 49% 0.00in /  0mm 0.0 W/m2
01:19 49.3 °F /  9.6 °C 31.5 °F /  -0.3 °C 30.07in /  1018.2hPa Calm     50% 0.00in /  0mm 0.0 W/m2
01:25 48.9 °F /  9.4 °C 31.1 °F /  -0.5 °C 30.07in /  1018.2hPa Calm     50% 0.00in /  0mm 0.0 W/m2
01:31 48.6 °F /  9.2 °C 30.7 °F /  -0.7 °C 30.07in /  1018.2hPa Calm     50% 0.00in /  0mm 0.0 W/m2
01:38 48.4 °F /  9.1 °C 31.1 °F /  -0.5 °C 30.07in /  1018.2hPa Calm     51% 0.00in /  0mm 0.0 W/m2
01:44 48.0 °F /  8.9 °C 30.2 °F /  -1 °C 30.07in /  1018.2hPa Calm   1.0mph /  1.6km/h 50% 0.00in /  0mm 0.0 W/m2
01:50 47.8 °F /  8.8 °C 30.6 °F /  -0.8 °C 30.07in /  1018.2hPa Calm     51% 0.00in /  0mm 0.0 W/m2
01:56 47.7 °F /  8.7 °C 31.3 °F /  -0.4 °C 30.07in /  1018.2hPa Calm     53% 0.00in /  0mm 0.0 W/m2
02:02 47.5 °F /  8.6 °C 31.3 °F /  -0.4 °C 30.07in /  1018.2hPa Calm     53% 0.00in /  0mm 0.0 W/m2
02:08 47.3 °F /  8.5 °C 31.1 °F /  -0.5 °C 30.07in /  1018.2hPa Calm     53% 0.00in /  0mm 0.0 W/m2
02:14 47.1 °F /  8.4 °C 30.4 °F /  -0.9 °C 30.07in /  1018.2hPa Calm   1.0mph /  1.6km/h 52% 0.00in /  0mm 0.0 W/m2
02:20 47.1 °F /  8.4 °C 30.9 °F /  -0.6 °C 30.07in /  1018.2hPa Calm     53% 0.00in /  0mm 0.0 W/m2
02:26 47.1 °F /  8.4 °C 30.4 °F /  -0.9 °C 30.07in /  1018.2hPa Calm     52% 0.00in /  0mm 0.0 W/m2
02:33 46.9 °F /  8.3 °C 30.7 °F /  -0.7 °C 30.07in /  1018.2hPa Calm     53% 0.00in /  0mm 0.0 W/m2
02:39 46.8 °F /  8.2 °C 30.9 °F /  -0.6 °C 30.07in /  1018.2hPa Calm     54% 0.00in /  0mm 0.0 W/m2
02:45 46.6 °F /  8.1 °C 30.7 °F /  -0.7 °C 30.07in /  1018.2hPa Calm     54% 0.00in /  0mm 0.0 W/m2
02:51 46.6 °F /  8.1 °C 31.6 °F /  -0.2 °C 30.07in /  1018.2hPa Calm   1.0mph /  1.6km/h 56% 0.00in /  0mm 0.0 W/m2
02:57 46.2 °F /  7.9 °C 30.6 °F /  -0.8 °C 30.07in /  1018.2hPa Calm     54% 0.00in /  0mm 0.0 W/m2
03:03 46.0 °F /  7.8 °C 30.4 °F /  -0.9 °C 30.07in /  1018.2hPa Calm     54% 0.00in /  0mm 0.0 W/m2
03:09 46.0 °F /  7.8 °C 30.7 °F /  -0.7 °C 30.07in /  1018.2hPa Calm     55% 0.00in /  0mm 0.0 W/m2
03:15 45.9 °F /  7.7 °C 30.6 °F /  -0.8 °C 30.06in /  1017.8hPa Calm   2.0mph /  3.2km/h 55% 0.00in /  0mm 0.0 W/m2
03:21 45.9 °F /  7.7 °C 30.2 °F /  -1 °C 30.06in /  1017.8hPa ESE 0.9mph /  1.4km/h 4.0mph /  6.4km/h 54% 0.00in /  0mm 0.0 W/m2
03:28 46.6 °F /  8.1 °C 30.4 °F /  -0.9 °C 30.06in /  1017.8hPa Calm   2.0mph /  3.2km/h 53% 0.00in /  0mm 0.0 W/m2
03:34 47.3 °F /  8.5 °C 30.0 °F /  -1.1 °C 30.06in /  1017.8hPa SE 2.0mph /  3.2km/h 4.0mph /  6.4km/h 51% 0.00in /  0mm 0.0 W/m2
03:40 47.7 °F /  8.7 °C 30.4 °F /  -0.9 °C 30.06in /  1017.8hPa Calm     51% 0.00in /  0mm 0.0 W/m2
03:46 47.8 °F /  8.8 °C 30.6 °F /  -0.8 °C 30.06in /  1017.8hPa Calm     51% 0.00in /  0mm 0.0 W/m2
03:52 47.7 °F /  8.7 °C 30.9 °F /  -0.6 °C 30.06in /  1017.8hPa Calm     52% 0.00in /  0mm 0.0 W/m2
03:58 47.5 °F /  8.6 °C 30.7 °F /  -0.7 °C 30.06in /  1017.8hPa SSW 2.0mph /  3.2km/h 3.0mph /  4.8km/h 52% 0.00in /  0mm 0.0 W/m2
04:04 47.1 °F /  8.4 °C 29.8 °F /  -1.2 °C 30.05in /  1017.5hPa Calm   1.0mph /  1.6km/h 51% 0.00in /  0mm 0.0 W/m2
04:11 47.1 °F /  8.4 °C 30.4 °F /  -0.9 °C 30.05in /  1017.5hPa Calm     52% 0.00in /  0mm 0.0 W/m2
04:17 47.1 °F /  8.4 °C 30.4 °F /  -0.9 °C 30.05in /  1017.5hPa Calm   1.0mph /  1.6km/h 52% 0.00in /  0mm 0.0 W/m2
04:23 46.8 °F /  8.2 °C 30.0 °F /  -1.1 °C 30.05in /  1017.5hPa Calm     52% 0.00in /  0mm 0.0 W/m2
04:29 46.8 °F /  8.2 °C 30.0 °F /  -1.1 °C 30.05in /  1017.5hPa Calm   1.0mph /  1.6km/h 52% 0.00in /  0mm 0.0 W/m2
04:35 46.6 °F /  8.1 °C 29.8 °F /  -1.2 °C 30.05in /  1017.5hPa Calm   4.0mph /  6.4km/h 52% 0.00in /  0mm 0.0 W/m2
04:41 46.6 °F /  8.1 °C 29.8 °F /  -1.2 °C 30.05in /  1017.5hPa Calm   2.0mph /  3.2km/h 52% 0.00in /  0mm 0.0 W/m2
04:47 46.8 °F /  8.2 °C 30.6 °F /  -0.8 °C 30.05in /  1017.5hPa Calm     53% 0.00in /  0mm 0.0 W/m2
04:53 46.8 °F /  8.2 °C 30.6 °F /  -0.8 °C 30.05in /  1017.5hPa Calm   1.0mph /  1.6km/h 53% 0.00in /  0mm 0.0 W/m2
04:59 46.8 °F /  8.2 °C 30.0 °F /  -1.1 °C 30.05in /  1017.5hPa Calm   1.0mph /  1.6km/h 52% 0.00in /  0mm 0.0 W/m2
05:06 46.8 °F /  8.2 °C 30.0 °F /  -1.1 °C 30.05in /  1017.5hPa East 3.0mph /  4.8km/h 3.0mph /  4.8km/h 52% 0.00in /  0mm 0.0 W/m2
05:12 46.9 °F /  8.3 °C 30.2 °F /  -1 °C 30.05in /  1017.5hPa Calm   4.0mph /  6.4km/h 52% 0.00in /  0mm 0.0 W/m2
05:18 46.8 °F /  8.2 °C 30.0 °F /  -1.1 °C 30.05in /  1017.5hPa SE 0.9mph /  1.4km/h 2.0mph /  3.2km/h 52% 0.00in /  0mm 0.0 W/m2
05:24 46.8 °F /  8.2 °C 30.6 °F /  -0.8 °C 30.05in /  1017.5hPa Calm     53% 0.00in /  0mm 0.0 W/m2
05:30 46.8 °F /  8.2 °C 30.0 °F /  -1.1 °C 30.06in /  1017.8hPa Calm   3.0mph /  4.8km/h 52% 0.00in /  0mm 0.0 W/m2
05:36 46.8 °F /  8.2 °C 30.0 °F /  -1.1 °C 30.06in /  1017.8hPa Calm   1.0mph /  1.6km/h 52% 0.00in /  0mm 0.0 W/m2
05:42 46.8 °F /  8.2 °C 30.6 °F /  -0.8 °C 30.06in /  1017.8hPa Calm   2.0mph /  3.2km/h 53% 0.00in /  0mm 0.0 W/m2
05:48 46.8 °F /  8.2 °C 30.0 °F /  -1.1 °C 30.06in /  1017.8hPa Calm   2.0mph /  3.2km/h 52% 0.00in /  0mm 0.0 W/m2
05:54 47.1 °F /  8.4 °C 29.8 °F /  -1.2 °C 30.06in /  1017.8hPa Calm   3.0mph /  4.8km/h 51% 0.00in /  0mm 0.0 W/m2
06:01 47.5 °F /  8.6 °C 30.2 °F /  -1 °C 30.06in /  1017.8hPa Calm   1.0mph /  1.6km/h 51% 0.00in /  0mm 0.0 W/m2
06:07 47.5 °F /  8.6 °C 30.2 °F /  -1 °C 30.07in /  1018.2hPa Calm   1.0mph /  1.6km/h 51% 0.00in /  0mm 0.0 W/m2
06:13 47.3 °F /  8.5 °C 30.6 °F /  -0.8 °C 30.07in /  1018.2hPa Calm   1.0mph /  1.6km/h 52% 0.00in /  0mm 0.0 W/m2
06:19 47.3 °F /  8.5 °C 31.1 °F /  -0.5 °C 30.07in /  1018.2hPa Calm     53% 0.00in /  0mm 0.0 W/m2
06:25 47.1 °F /  8.4 °C 30.9 °F /  -0.6 °C 30.08in /  1018.5hPa Calm   2.0mph /  3.2km/h 53% 0.00in /  0mm 7.0 W/m2
06:32 46.9 °F /  8.3 °C 30.7 °F /  -0.7 °C 30.08in /  1018.5hPa Calm   1.0mph /  1.6km/h 53% 0.00in /  0mm 9.0 W/m2
06:37 46.9 °F /  8.3 °C 30.7 °F /  -0.7 °C 30.08in /  1018.5hPa Calm   1.0mph /  1.6km/h 53% 0.00in /  0mm 11.0 W/m2
06:44 46.9 °F /  8.3 °C 30.2 °F /  -1 °C 30.08in /  1018.5hPa SSE 2.0mph /  3.2km/h 2.0mph /  3.2km/h 52% 0.00in /  0mm 12.0 W/m2
06:50 47.1 °F /  8.4 °C 30.4 °F /  -0.9 °C 30.09in /  1018.8hPa Calm   3.0mph /  4.8km/h 52% 0.00in /  0mm 14.0 W/m2
06:56 47.5 °F /  8.6 °C 31.3 °F /  -0.4 °C 30.09in /  1018.8hPa Calm   1.0mph /  1.6km/h 53% 0.00in /  0mm 16.0 W/m2
07:02 47.5 °F /  8.6 °C 31.6 °F /  -0.2 °C 30.09in /  1018.8hPa Calm   3.0mph /  4.8km/h 54% 0.00in /  0mm 16.0 W/m2
07:08 47.7 °F /  8.7 °C 31.8 °F /  -0.1 °C 30.09in /  1018.8hPa Calm   1.0mph /  1.6km/h 54% 0.00in /  0mm 18.0 W/m2
07:14 48.0 °F /  8.9 °C 32.2 °F /  0.1 °C 30.09in /  1018.8hPa Calm   2.0mph /  3.2km/h 54% 0.00in /  0mm 19.0 W/m2
07:20 48.4 °F /  9.1 °C 32.5 °F /  0.3 °C 30.09in /  1018.8hPa Calm   1.0mph /  1.6km/h 54% 0.00in /  0mm 21.0 W/m2
07:27 48.7 °F /  9.3 °C 33.3 °F /  0.7 °C 30.10in /  1019.2hPa Calm   1.0mph /  1.6km/h 55% 0.00in /  0mm 21.0 W/m2
07:35 49.6 °F /  9.8 °C 33.3 °F /  0.7 °C 30.10in /  1019.2hPa Calm   3.0mph /  4.8km/h 53% 0.00in /  0mm 23.0 W/m2
07:41 50.9 °F /  10.5 °C 32.9 °F /  0.5 °C 30.10in /  1019.2hPa East 0.9mph /  1.4km/h 2.0mph /  3.2km/h 50% 0.00in /  0mm 25.0 W/m2
07:47 52.5 °F /  11.4 °C 33.4 °F /  0.8 °C 30.10in /  1019.2hPa Calm   7.0mph /  11.3km/h 48% 0.00in /  0mm 25.0 W/m2
07:53 54.0 °F /  12.2 °C 33.1 °F /  0.6 °C 30.10in /  1019.2hPa SE 0.9mph /  1.4km/h 7.0mph /  11.3km/h 45% 0.00in /  0mm 26.0 W/m2
07:59 55.4 °F /  13 °C 33.3 °F /  0.7 °C 30.10in /  1019.2hPa ESE 2.9mph /  4.7km/h 3.0mph /  4.8km/h 43% 0.00in /  0mm 26.0 W/m2
08:06 56.7 °F /  13.7 °C 33.8 °F /  1 °C 30.10in /  1019.2hPa ENE 2.9mph /  4.7km/h 5.0mph /  8km/h 42% 0.00in /  0mm 63.0 W/m2
08:12 57.9 °F /  14.4 °C 33.8 °F /  1 °C 30.10in /  1019.2hPa Calm   4.0mph /  6.4km/h 40% 0.00in /  0mm 383.0 W/m2
08:18 59.4 °F /  15.2 °C 34.3 °F /  1.3 °C 30.11in /  1019.5hPa NE 0.9mph /  1.4km/h 3.0mph /  4.8km/h 39% 0.00in /  0mm 404.0 W/m2
08:22 60.4 °F /  15.8 °C 34.7 °F /  1.5 °C 30.11in /  1019.5hPa SE 0.9mph /  1.4km/h 3.0mph /  4.8km/h 38% 0.00in /  0mm 418.0 W/m2
08:28 61.9 °F /  16.6 °C 34.7 °F /  1.5 °C 30.11in /  1019.5hPa Calm   4.0mph /  6.4km/h 36% 0.00in /  0mm 438.0 W/m2
08:34 63.3 °F /  17.4 °C 33.8 °F /  1 °C 30.11in /  1019.5hPa ESE 0.9mph /  1.4km/h 3.0mph /  4.8km/h 33% 0.00in /  0mm 455.0 W/m2
08:40 64.6 °F /  18.1 °C 34.0 °F /  1.1 °C 30.11in /  1019.5hPa Calm   2.0mph /  3.2km/h 32% 0.00in /  0mm 478.0 W/m2
08:47 66.0 °F /  18.9 °C 34.5 °F /  1.4 °C 30.11in /  1019.5hPa North 2.9mph /  4.7km/h 3.0mph /  4.8km/h 31% 0.00in /  0mm 496.0 W/m2
08:53 67.3 °F /  19.6 °C 34.7 °F /  1.5 °C 30.11in /  1019.5hPa NNE 0.9mph /  1.4km/h 3.0mph /  4.8km/h 30% 0.00in /  0mm 515.0 W/m2
08:59 68.0 °F /  20 °C 35.4 °F /  1.9 °C 30.11in /  1019.5hPa Calm     30% 0.00in /  0mm 531.0 W/m2
09:05 68.9 °F /  20.5 °C 34.5 °F /  1.4 °C 30.11in /  1019.5hPa NE 2.9mph /  4.7km/h 3.0mph /  4.8km/h 28% 0.00in /  0mm 548.0 W/m2
09:11 70.0 °F /  21.1 °C 33.4 °F /  0.8 °C 30.11in /  1019.5hPa NNW 2.0mph /  3.2km/h 2.0mph /  3.2km/h 26% 0.00in /  0mm 568.0 W/m2
09:17 70.5 °F /  21.4 °C 33.1 °F /  0.6 °C 30.11in /  1019.5hPa Calm   2.0mph /  3.2km/h 25% 0.00in /  0mm 582.0 W/m2
09:23 71.1 °F /  21.7 °C 34.5 °F /  1.4 °C 30.11in /  1019.5hPa Calm   1.0mph /  1.6km/h 26% 0.00in /  0mm 598.0 W/m2
09:29 71.8 °F /  22.1 °C 32.0 °F /  0 °C 30.10in /  1019.2hPa Calm   1.0mph /  1.6km/h 23% 0.00in /  0mm 612.0 W/m2
09:36 72.0 °F /  22.2 °C 33.3 °F /  0.7 °C 30.10in /  1019.2hPa WNW 2.0mph /  3.2km/h 2.0mph /  3.2km/h 24% 0.00in /  0mm 622.0 W/m2
09:42 72.3 °F /  22.4 °C 32.4 °F /  0.2 °C 30.10in /  1019.2hPa Calm   3.0mph /  4.8km/h 23% 0.00in /  0mm 640.0 W/m2
09:48 72.5 °F /  22.5 °C 33.6 °F /  0.9 °C 30.10in /  1019.2hPa Calm   1.0mph /  1.6km/h 24% 0.00in /  0mm 650.0 W/m2
09:54 72.0 °F /  22.2 °C 33.3 °F /  0.7 °C 30.10in /  1019.2hPa Calm   1.0mph /  1.6km/h 24% 0.00in /  0mm 663.0 W/m2
10:00 72.5 °F /  22.5 °C 33.6 °F /  0.9 °C 30.10in /  1019.2hPa ESE 0.9mph /  1.4km/h 2.0mph /  3.2km/h 24% 0.00in /  0mm 673.0 W/m2
10:06 72.9 °F /  22.7 °C 31.8 °F /  -0.1 °C 30.10in /  1019.2hPa South 6.0mph /  9.7km/h 8.0mph /  12.9km/h 22% 0.00in /  0mm 686.0 W/m2
10:13 73.0 °F /  22.8 °C 30.7 °F /  -0.7 °C 30.10in /  1019.2hPa SE 0.9mph /  1.4km/h 3.0mph /  4.8km/h 21% 0.00in /  0mm 696.0 W/m2
10:19 72.7 °F /  22.6 °C 30.6 °F /  -0.8 °C 30.10in /  1019.2hPa SSE 2.0mph /  3.2km/h 4.0mph /  6.4km/h 21% 0.00in /  0mm 707.0 W/m2
10:25 72.1 °F /  22.3 °C 30.0 °F /  -1.1 °C 30.10in /  1019.2hPa SE 4.0mph /  6.4km/h 10.0mph /  16.1km/h 21% 0.00in /  0mm 715.0 W/m2
10:31 72.1 °F /  22.3 °C 31.1 °F /  -0.5 °C 30.10in /  1019.2hPa SE 2.9mph /  4.7km/h 9.0mph /  14.5km/h 22% 0.00in /  0mm 721.0 W/m2
10:37 72.5 °F /  22.5 °C 31.5 °F /  -0.3 °C 30.10in /  1019.2hPa SSW 2.9mph /  4.7km/h 7.0mph /  11.3km/h 22% 0.00in /  0mm 731.0 W/m2
10:43 72.1 °F /  22.3 °C 30.0 °F /  -1.1 °C 30.09in /  1018.8hPa SSE 6.0mph /  9.7km/h 6.0mph /  9.7km/h 21% 0.00in /  0mm 737.0 W/m2
10:49 72.1 °F /  22.3 °C 31.1 °F /  -0.5 °C 30.09in /  1018.8hPa SE 2.9mph /  4.7km/h 8.0mph /  12.9km/h 22% 0.00in /  0mm 744.0 W/m2
10:55 72.0 °F /  22.2 °C 31.1 °F /  -0.5 °C 30.09in /  1018.8hPa Calm   8.0mph /  12.9km/h 22% 0.00in /  0mm 751.0 W/m2
11:01 72.1 °F /  22.3 °C 30.0 °F /  -1.1 °C 30.09in /  1018.8hPa SE 2.9mph /  4.7km/h 10.0mph /  16.1km/h 21% 0.00in /  0mm 756.0 W/m2
11:08 72.1 °F /  22.3 °C 30.0 °F /  -1.1 °C 30.08in /  1018.5hPa SW 2.9mph /  4.7km/h 3.0mph /  4.8km/h 21% 0.00in /  0mm 758.0 W/m2
11:14 72.7 °F /  22.6 °C 30.6 °F /  -0.8 °C 30.08in /  1018.5hPa South 4.9mph /  7.9km/h 5.0mph /  8km/h 21% 0.00in /  0mm 761.0 W/m2
11:20 72.9 °F /  22.7 °C 29.5 °F /  -1.4 °C 30.08in /  1018.5hPa SSE 2.0mph /  3.2km/h 8.0mph /  12.9km/h 20% 0.00in /  0mm 765.0 W/m2
11:26 72.9 °F /  22.7 °C 30.6 °F /  -0.8 °C 30.08in /  1018.5hPa SE 2.9mph /  4.7km/h 9.0mph /  14.5km/h 21% 0.00in /  0mm 766.0 W/m2
11:32 73.0 °F /  22.8 °C 30.7 °F /  -0.7 °C 30.07in /  1018.2hPa SSE 2.9mph /  4.7km/h 9.0mph /  14.5km/h 21% 0.00in /  0mm 770.0 W/m2
11:38 73.4 °F /  23 °C 29.8 °F /  -1.2 °C 30.07in /  1018.2hPa SE 6.9mph /  11.1km/h 9.0mph /  14.5km/h 20% 0.00in /  0mm 773.0 W/m2
11:44 73.0 °F /  22.8 °C 29.7 °F /  -1.3 °C 30.07in /  1018.2hPa SE 2.9mph /  4.7km/h 8.0mph /  12.9km/h 20% 0.00in /  0mm 773.0 W/m2
11:50 73.0 °F /  22.8 °C 29.7 °F /  -1.3 °C 30.06in /  1017.8hPa SSW 2.0mph /  3.2km/h 7.0mph /  11.3km/h 20% 0.00in /  0mm 773.0 W/m2
11:57 73.6 °F /  23.1 °C 28.8 °F /  -1.8 °C 30.06in /  1017.8hPa Calm   8.0mph /  12.9km/h 19% 0.00in /  0mm 770.0 W/m2
12:03 73.6 °F /  23.1 °C 30.0 °F /  -1.1 °C 30.06in /  1017.8hPa ESE 2.9mph /  4.7km/h 7.0mph /  11.3km/h 20% 0.00in /  0mm 768.0 W/m2
12:09 73.9 °F /  23.3 °C 30.4 °F /  -0.9 °C 30.06in /  1017.8hPa East 4.9mph /  7.9km/h 10.0mph /  16.1km/h 20% 0.00in /  0mm 766.0 W/m2
12:15 73.9 °F /  23.3 °C 30.4 °F /  -0.9 °C 30.06in /  1017.8hPa SE 10.1mph /  16.3km/h 12.0mph /  19.3km/h 20% 0.00in /  0mm 758.0 W/m2
12:21 73.8 °F /  23.2 °C 30.2 °F /  -1 °C 30.05in /  1017.5hPa SSE 6.9mph /  11.1km/h 10.0mph /  16.1km/h 20% 0.00in /  0mm 756.0 W/m2
12:27 73.4 °F /  23 °C 28.6 °F /  -1.9 °C 30.05in /  1017.5hPa SSW 0.9mph /  1.4km/h 7.0mph /  11.3km/h 19% 0.00in /  0mm 752.0 W/m2
12:33 72.7 °F /  22.6 °C 29.3 °F /  -1.5 °C 30.04in /  1017.2hPa SE 2.9mph /  4.7km/h 3.0mph /  4.8km/h 20% 0.00in /  0mm 747.0 W/m2
12:39 72.9 °F /  22.7 °C 29.5 °F /  -1.4 °C 30.04in /  1017.2hPa ESE 2.9mph /  4.7km/h 8.0mph /  12.9km/h 20% 0.00in /  0mm 744.0 W/m2
12:45 73.2 °F /  22.9 °C 29.7 °F /  -1.3 °C 30.04in /  1017.2hPa SSE 8.1mph /  13km/h 8.1mph /  13km/h 20% 0.00in /  0mm 735.0 W/m2
12:52 73.8 °F /  23.2 °C 28.9 °F /  -1.7 °C 30.04in /  1017.2hPa SSE 0.9mph /  1.4km/h 7.0mph /  11.3km/h 19% 0.00in /  0mm 729.0 W/m2
12:58 74.1 °F /  23.4 °C 30.6 °F /  -0.8 °C 30.03in /  1016.8hPa SSW 6.9mph /  11.1km/h 7.0mph /  11.3km/h 20% 0.00in /  0mm 722.0 W/m2
13:04 74.5 °F /  23.6 °C 29.5 °F /  -1.4 °C 30.03in /  1016.8hPa Calm   3.0mph /  4.8km/h 19% 0.00in /  0mm 712.0 W/m2
13:10 74.3 °F /  23.5 °C 30.6 °F /  -0.8 °C 30.03in /  1016.8hPa SSW 2.0mph /  3.2km/h 5.0mph /  8km/h 20% 0.00in /  0mm 703.0 W/m2
13:16 74.5 °F /  23.6 °C 29.5 °F /  -1.4 °C 30.03in /  1016.8hPa SE 2.9mph /  4.7km/h 3.0mph /  4.8km/h 19% 0.00in /  0mm 693.0 W/m2
13:22 74.7 °F /  23.7 °C 28.4 °F /  -2 °C 30.03in /  1016.8hPa SSE 10.1mph /  16.3km/h 10.1mph /  16.3km/h 18% 0.00in /  0mm 682.0 W/m2
13:28 74.8 °F /  23.8 °C 28.4 °F /  -2 °C 30.03in /  1016.8hPa ESE 4.9mph /  7.9km/h 10.0mph /  16.1km/h 18% 0.00in /  0mm 670.0 W/m2
13:34 74.8 °F /  23.8 °C 27.1 °F /  -2.7 °C 30.02in /  1016.5hPa East 2.0mph /  3.2km/h 8.0mph /  12.9km/h 17% 0.00in /  0mm 661.0 W/m2
13:40 75.0 °F /  23.9 °C 25.7 °F /  -3.5 °C 30.02in /  1016.5hPa SSW 0.9mph /  1.4km/h 4.0mph /  6.4km/h 16% 0.00in /  0mm 652.0 W/m2
13:47 74.8 °F /  23.8 °C 27.1 °F /  -2.7 °C 30.02in /  1016.5hPa Calm   5.0mph /  8km/h 17% 0.00in /  0mm 636.0 W/m2
13:53 75.0 °F /  23.9 °C 27.3 °F /  -2.6 °C 30.02in /  1016.5hPa SSE 4.9mph /  7.9km/h 6.0mph /  9.7km/h 17% 0.00in /  0mm 622.0 W/m2
13:59 74.8 °F /  23.8 °C 25.7 °F /  -3.5 °C 30.02in /  1016.5hPa SE 6.0mph /  9.7km/h 7.0mph /  11.3km/h 16% 0.00in /  0mm 610.0 W/m2
14:05 74.8 °F /  23.8 °C 27.1 °F /  -2.7 °C 30.02in /  1016.5hPa South 2.0mph /  3.2km/h 9.0mph /  14.5km/h 17% 0.00in /  0mm 592.0 W/m2
14:11 74.8 °F /  23.8 °C 25.7 °F /  -3.5 °C 30.02in /  1016.5hPa Calm   7.0mph /  11.3km/h 16% 0.00in /  0mm 578.0 W/m2
14:17 74.7 °F /  23.7 °C 27.0 °F /  -2.8 °C 30.02in /  1016.5hPa SSE 0.9mph /  1.4km/h 6.0mph /  9.7km/h 17% 0.00in /  0mm 564.0 W/m2
14:23 74.8 °F /  23.8 °C 27.1 °F /  -2.7 °C 30.02in /  1016.5hPa SSE 0.9mph /  1.4km/h 6.0mph /  9.7km/h 17% 0.00in /  0mm 547.0 W/m2
14:29 75.0 °F /  23.9 °C 25.7 °F /  -3.5 °C 30.02in /  1016.5hPa SSW 2.9mph /  4.7km/h 6.0mph /  9.7km/h 16% 0.00in /  0mm 531.0 W/m2
14:36 75.0 °F /  23.9 °C 25.7 °F /  -3.5 °C 30.02in /  1016.5hPa SSE 2.9mph /  4.7km/h 4.0mph /  6.4km/h 16% 0.00in /  0mm 515.0 W/m2
14:42 75.0 °F /  23.9 °C 25.7 °F /  -3.5 °C 30.02in /  1016.5hPa South 2.0mph /  3.2km/h 4.0mph /  6.4km/h 16% 0.00in /  0mm 494.0 W/m2
14:48 75.0 °F /  23.9 °C 24.3 °F /  -4.3 °C 30.02in /  1016.5hPa SE 4.0mph /  6.4km/h 6.0mph /  9.7km/h 15% 0.00in /  0mm 478.0 W/m2
14:54 75.0 °F /  23.9 °C 24.3 °F /  -4.3 °C 30.02in /  1016.5hPa SSW 0.9mph /  1.4km/h 7.0mph /  11.3km/h 15% 0.00in /  0mm 459.0 W/m2
15:00 75.0 °F /  23.9 °C 25.7 °F /  -3.5 °C 30.02in /  1016.5hPa Calm   5.0mph /  8km/h 16% 0.00in /  0mm 441.0 W/m2
15:06 75.0 °F /  23.9 °C 24.3 °F /  -4.3 °C 30.03in /  1016.8hPa ESE 4.0mph /  6.4km/h 9.0mph /  14.5km/h 15% 0.00in /  0mm 422.0 W/m2
15:12 74.7 °F /  23.7 °C 23.9 °F /  -4.5 °C 30.03in /  1016.8hPa Calm   7.0mph /  11.3km/h 15% 0.00in /  0mm 401.0 W/m2
15:18 74.3 °F /  23.5 °C 22.1 °F /  -5.5 °C 30.03in /  1016.8hPa SSW 2.9mph /  4.7km/h 7.0mph /  11.3km/h 14% 0.00in /  0mm 380.0 W/m2
15:25 73.9 °F /  23.3 °C 21.7 °F /  -5.7 °C 30.03in /  1016.8hPa NNE 2.0mph /  3.2km/h 2.0mph /  3.2km/h 14% 0.00in /  0mm 359.0 W/m2
15:31 73.8 °F /  23.2 °C 21.6 °F /  -5.8 °C 30.03in /  1016.8hPa Calm   5.0mph /  8km/h 14% 0.00in /  0mm 339.0 W/m2
15:37 73.2 °F /  22.9 °C 21.2 °F /  -6 °C 30.03in /  1016.8hPa South 2.9mph /  4.7km/h 4.0mph /  6.4km/h 14% 0.00in /  0mm 40.0 W/m2
15:43 72.9 °F /  22.7 °C 22.5 °F /  -5.3 °C 30.03in /  1016.8hPa SSE 0.9mph /  1.4km/h 6.0mph /  9.7km/h 15% 0.00in /  0mm 37.0 W/m2
15:49 72.7 °F /  22.6 °C 22.3 °F /  -5.4 °C 30.03in /  1016.8hPa ESE 2.0mph /  3.2km/h 6.0mph /  9.7km/h 15% 0.00in /  0mm 33.0 W/m2
15:55 72.3 °F /  22.4 °C 22.1 °F /  -5.5 °C 30.03in /  1016.8hPa South 2.9mph /  4.7km/h 8.0mph /  12.9km/h 15% 0.00in /  0mm 32.0 W/m2
16:01 72.0 °F /  22.2 °C 21.7 °F /  -5.7 °C 30.03in /  1016.8hPa Calm   3.0mph /  4.8km/h 15% 0.00in /  0mm 26.0 W/m2
16:07 71.4 °F /  21.9 °C 22.8 °F /  -5.1 °C 30.04in /  1017.2hPa ESE 2.0mph /  3.2km/h 3.0mph /  4.8km/h 16% 0.00in /  0mm 23.0 W/m2
16:14 71.2 °F /  21.8 °C 21.2 °F /  -6 °C 30.04in /  1017.2hPa Calm   4.0mph /  6.4km/h 15% 0.00in /  0mm 19.0 W/m2
16:20 70.9 °F /  21.6 °C 20.8 °F /  -6.2 °C 30.04in /  1017.2hPa SE 4.0mph /  6.4km/h 6.0mph /  9.7km/h 15% 0.00in /  0mm 21.0 W/m2
16:26 70.5 °F /  21.4 °C 20.7 °F /  -6.3 °C 30.04in /  1017.2hPa SE 0.9mph /  1.4km/h 6.0mph /  9.7km/h 15% 0.00in /  0mm 18.0 W/m2
16:32 70.3 °F /  21.3 °C 22.1 °F /  -5.5 °C 30.04in /  1017.2hPa SE 2.0mph /  3.2km/h 5.0mph /  8km/h 16% 0.00in /  0mm 16.0 W/m2
16:38 70.2 °F /  21.2 °C 21.9 °F /  -5.6 °C 30.05in /  1017.5hPa SE 2.0mph /  3.2km/h 4.0mph /  6.4km/h 16% 0.00in /  0mm 18.0 W/m2
16:44 70.0 °F /  21.1 °C 21.7 °F /  -5.7 °C 30.05in /  1017.5hPa Calm   4.0mph /  6.4km/h 16% 0.00in /  0mm 14.0 W/m2
16:50 69.6 °F /  20.9 °C 21.4 °F /  -5.9 °C 30.05in /  1017.5hPa ESE 0.9mph /  1.4km/h 5.0mph /  8km/h 16% 0.00in /  0mm 14.0 W/m2
16:56 69.3 °F /  20.7 °C 22.6 °F /  -5.2 °C 30.05in /  1017.5hPa ESE 0.9mph /  1.4km/h 4.0mph /  6.4km/h 17% 0.00in /  0mm 12.0 W/m2
17:03 68.7 °F /  20.4 °C 22.1 °F /  -5.5 °C 30.05in /  1017.5hPa ESE 0.9mph /  1.4km/h 3.0mph /  4.8km/h 17% 0.00in /  0mm 9.0 W/m2
17:09 68.4 °F /  20.2 °C 21.9 °F /  -5.6 °C 30.05in /  1017.5hPa Calm   2.0mph /  3.2km/h 17% 0.00in /  0mm 7.0 W/m2
17:15 67.8 °F /  19.9 °C 22.8 °F /  -5.1 °C 30.05in /  1017.5hPa Calm   3.0mph /  4.8km/h 18% 0.00in /  0mm 5.0 W/m2
17:21 67.3 °F /  19.6 °C 23.5 °F /  -4.7 °C 30.05in /  1017.5hPa East 4.0mph /  6.4km/h 4.0mph /  6.4km/h 19% 0.00in /  0mm 0.0 W/m2
17:27 66.7 °F /  19.3 °C 23.2 °F /  -4.9 °C 30.06in /  1017.8hPa ESE 0.9mph /  1.4km/h 2.0mph /  3.2km/h 19% 0.00in /  0mm 0.0 W/m2
17:33 66.2 °F /  19 °C 22.6 °F /  -5.2 °C 30.06in /  1017.8hPa ESE 2.0mph /  3.2km/h 3.0mph /  4.8km/h 19% 0.00in /  0mm 0.0 W/m2
17:39 65.7 °F /  18.7 °C 23.5 °F /  -4.7 °C 30.06in /  1017.8hPa Calm   4.0mph /  6.4km/h 20% 0.00in /  0mm 0.0 W/m2
17:45 65.1 °F /  18.4 °C 23.0 °F /  -5 °C 30.06in /  1017.8hPa Calm   2.0mph /  3.2km/h 20% 0.00in /  0mm 0.0 W/m2
17:52 64.8 °F /  18.2 °C 23.9 °F /  -4.5 °C 30.07in /  1018.2hPa SSE 0.9mph /  1.4km/h 1.0mph /  1.6km/h 21% 0.00in /  0mm 0.0 W/m2
17:58 64.2 °F /  17.9 °C 23.5 °F /  -4.7 °C 30.07in /  1018.2hPa Calm   1.0mph /  1.6km/h 21% 0.00in /  0mm 0.0 W/m2
18:04 63.7 °F /  17.6 °C 24.1 °F /  -4.4 °C 30.07in /  1018.2hPa Calm     22% 0.00in /  0mm 0.0 W/m2
18:10 63.0 °F /  17.2 °C 23.5 °F /  -4.7 °C 30.08in /  1018.5hPa Calm   1.0mph /  1.6km/h 22% 0.00in /  0mm 0.0 W/m2
18:16 62.4 °F /  16.9 °C 23.0 °F /  -5 °C 30.08in /  1018.5hPa Calm   1.0mph /  1.6km/h 22% 0.00in /  0mm 0.0 W/m2
18:22 62.1 °F /  16.7 °C 23.9 °F /  -4.5 °C 30.08in /  1018.5hPa Calm     23% 0.00in /  0mm 0.0 W/m2
18:28 61.5 °F /  16.4 °C 24.4 °F /  -4.2 °C 30.08in /  1018.5hPa Calm   1.0mph /  1.6km/h 24% 0.00in /  0mm 0.0 W/m2
18:35 61.2 °F /  16.2 °C 24.1 °F /  -4.4 °C 30.08in /  1018.5hPa Calm   4.0mph /  6.4km/h 24% 0.00in /  0mm 0.0 W/m2
18:41 61.0 °F /  16.1 °C 22.8 °F /  -5.1 °C 30.08in /  1018.5hPa ESE 2.9mph /  4.7km/h 4.0mph /  6.4km/h 23% 0.00in /  0mm 0.0 W/m2
18:47 61.2 °F /  16.2 °C 24.1 °F /  -4.4 °C 30.08in /  1018.5hPa Calm   4.0mph /  6.4km/h 24% 0.00in /  0mm 0.0 W/m2
18:53 61.0 °F /  16.1 °C 23.9 °F /  -4.5 °C 30.08in /  1018.5hPa Calm   2.0mph /  3.2km/h 24% 0.00in /  0mm 0.0 W/m2
18:59 60.3 °F /  15.7 °C 24.3 °F /  -4.3 °C 30.08in /  1018.5hPa Calm   2.0mph /  3.2km/h 25% 0.00in /  0mm 0.0 W/m2
19:05 60.1 °F /  15.6 °C 22.1 °F /  -5.5 °C 30.09in /  1018.8hPa SSE 0.9mph /  1.4km/h 4.0mph /  6.4km/h 23% 0.00in /  0mm 0.0 W/m2
19:11 60.4 °F /  15.8 °C 21.4 °F /  -5.9 °C 30.09in /  1018.8hPa SE 2.9mph /  4.7km/h 5.0mph /  8km/h 22% 0.00in /  0mm 0.0 W/m2
19:19 61.0 °F /  16.1 °C 21.9 °F /  -5.6 °C 30.09in /  1018.8hPa ESE 2.0mph /  3.2km/h 6.0mph /  9.7km/h 22% 0.00in /  0mm 0.0 W/m2
19:25 61.3 °F /  16.3 °C 24.3 °F /  -4.3 °C 30.09in /  1018.8hPa Calm   1.0mph /  1.6km/h 24% 0.00in /  0mm 0.0 W/m2
19:32 60.6 °F /  15.9 °C 24.6 °F /  -4.1 °C 30.09in /  1018.8hPa Calm   2.0mph /  3.2km/h 25% 0.00in /  0mm 0.0 W/m2
19:37 59.9 °F /  15.5 °C 23.9 °F /  -4.5 °C 30.09in /  1018.8hPa Calm     25% 0.00in /  0mm 0.0 W/m2
19:43 59.2 °F /  15.1 °C 24.3 °F /  -4.3 °C 30.09in /  1018.8hPa Calm     26% 0.00in /  0mm 0.0 W/m2
19:49 58.5 °F /  14.7 °C 23.7 °F /  -4.6 °C 30.10in /  1019.2hPa Calm     26% 0.00in /  0mm 0.0 W/m2
19:55 57.9 °F /  14.4 °C 24.1 °F /  -4.4 °C 30.10in /  1019.2hPa Calm     27% 0.00in /  0mm 0.0 W/m2
20:01 57.6 °F /  14.2 °C 23.9 °F /  -4.5 °C 30.10in /  1019.2hPa Calm     27% 0.00in /  0mm 0.0 W/m2
20:07 57.0 °F /  13.9 °C 24.3 °F /  -4.3 °C 30.10in /  1019.2hPa Calm   1.0mph /  1.6km/h 28% 0.00in /  0mm 0.0 W/m2
20:13 56.8 °F /  13.8 °C 24.1 °F /  -4.4 °C 30.10in /  1019.2hPa Calm   1.0mph /  1.6km/h 28% 0.00in /  0mm 0.0 W/m2
20:19 56.5 °F /  13.6 °C 24.6 °F /  -4.1 °C 30.10in /  1019.2hPa Calm     29% 0.00in /  0mm 0.0 W/m2
20:25 56.1 °F /  13.4 °C 24.3 °F /  -4.3 °C 30.10in /  1019.2hPa Calm   1.0mph /  1.6km/h 29% 0.00in /  0mm 0.0 W/m2
20:32 55.9 °F /  13.3 °C 24.1 °F /  -4.4 °C 30.10in /  1019.2hPa Calm     29% 0.00in /  0mm 0.0 W/m2
20:37 55.9 °F /  13.3 °C 23.4 °F /  -4.8 °C 30.11in /  1019.5hPa Calm   1.0mph /  1.6km/h 28% 0.00in /  0mm 0.0 W/m2
20:43 55.8 °F /  13.2 °C 23.9 °F /  -4.5 °C 30.11in /  1019.5hPa Calm     29% 0.00in /  0mm 0.0 W/m2
20:49 55.8 °F /  13.2 °C 23.9 °F /  -4.5 °C 30.11in /  1019.5hPa Calm   1.0mph /  1.6km/h 29% 0.00in /  0mm 0.0 W/m2
20:55 55.8 °F /  13.2 °C 23.9 °F /  -4.5 °C 30.10in /  1019.2hPa Calm     29% 0.00in /  0mm 0.0 W/m2
21:02 55.8 °F /  13.2 °C 24.8 °F /  -4 °C 30.11in /  1019.5hPa Calm   1.0mph /  1.6km/h 30% 0.00in /  0mm 0.0 W/m2
21:07 55.8 °F /  13.2 °C 23.9 °F /  -4.5 °C 30.11in /  1019.5hPa Calm     29% 0.00in /  0mm 0.0 W/m2
21:13 55.6 °F /  13.1 °C 24.6 °F /  -4.1 °C 30.11in /  1019.5hPa Calm     30% 0.00in /  0mm 0.0 W/m2
21:19 55.2 °F /  12.9 °C 24.3 °F /  -4.3 °C 30.11in /  1019.5hPa Calm     30% 0.00in /  0mm 0.0 W/m2
21:25 54.9 °F /  12.7 °C 24.8 °F /  -4 °C 30.12in /  1019.9hPa Calm     31% 0.00in /  0mm 0.0 W/m2
21:31 54.5 °F /  12.5 °C 24.4 °F /  -4.2 °C 30.12in /  1019.9hPa Calm     31% 0.00in /  0mm 0.0 W/m2
21:37 54.0 °F /  12.2 °C 24.8 °F /  -4 °C 30.12in /  1019.9hPa Calm   1.0mph /  1.6km/h 32% 0.00in /  0mm 0.0 W/m2
21:43 53.6 °F /  12 °C 24.4 °F /  -4.2 °C 30.12in /  1019.9hPa Calm     32% 0.00in /  0mm 0.0 W/m2
21:49 53.2 °F /  11.8 °C 24.8 °F /  -4 °C 30.12in /  1019.9hPa ENE 0.9mph /  1.4km/h 2.0mph /  3.2km/h 33% 0.00in /  0mm 0.0 W/m2
21:55 53.1 °F /  11.7 °C 25.3 °F /  -3.7 °C 30.12in /  1019.9hPa Calm   1.0mph /  1.6km/h 34% 0.00in /  0mm 0.0 W/m2
22:01 52.9 °F /  11.6 °C 25.3 °F /  -3.7 °C 30.12in /  1019.9hPa Calm     34% 0.00in /  0mm 0.0 W/m2
22:07 52.5 °F /  11.4 °C 25.7 °F /  -3.5 °C 30.12in /  1019.9hPa Calm     35% 0.00in /  0mm 0.0 W/m2
22:13 52.2 °F /  11.2 °C 26.1 °F /  -3.3 °C 30.12in /  1019.9hPa Calm     36% 0.00in /  0mm 0.0 W/m2
22:19 52.0 °F /  11.1 °C 25.9 °F /  -3.4 °C 30.12in /  1019.9hPa Calm     36% 0.00in /  0mm 0.0 W/m2
22:25 51.6 °F /  10.9 °C 26.2 °F /  -3.2 °C 30.12in /  1019.9hPa Calm   1.0mph /  1.6km/h 37% 0.00in /  0mm 0.0 W/m2
22:31 51.3 °F /  10.7 °C 25.9 °F /  -3.4 °C 30.12in /  1019.9hPa Calm     37% 0.00in /  0mm 0.0 W/m2
22:38 51.1 °F /  10.6 °C 25.7 °F /  -3.5 °C 30.12in /  1019.9hPa Calm     37% 0.00in /  0mm 0.0 W/m2
22:44 50.7 °F /  10.4 °C 26.1 °F /  -3.3 °C 30.13in /  1020.2hPa Calm   1.0mph /  1.6km/h 38% 0.00in /  0mm 0.0 W/m2
22:51 50.5 °F /  10.3 °C 25.2 °F /  -3.8 °C 30.12in /  1019.9hPa Calm   1.0mph /  1.6km/h 37% 0.00in /  0mm 0.0 W/m2
22:58 50.4 °F /  10.2 °C 25.7 °F /  -3.5 °C 30.13in /  1020.2hPa Calm     38% 0.00in /  0mm 0.0 W/m2
23:04 50.4 °F /  10.2 °C 25.7 °F /  -3.5 °C 30.13in /  1020.2hPa Calm     38% 0.00in /  0mm 0.0 W/m2
23:10 50.4 °F /  10.2 °C 25.0 °F /  -3.9 °C 30.12in /  1019.9hPa Calm     37% 0.00in /  0mm 0.0 W/m2
23:16 50.2 °F /  10.1 °C 25.5 °F /  -3.6 °C 30.12in /  1019.9hPa Calm     38% 0.00in /  0mm 0.0 W/m2
23:22 50.0 °F /  10 °C 25.3 °F /  -3.7 °C 30.12in /  1019.9hPa Calm     38% 0.00in /  0mm 0.0 W/m2
23:28 49.8 °F /  9.9 °C 25.9 °F /  -3.4 °C 30.12in /  1019.9hPa Calm     39% 0.00in /  0mm 0.0 W/m2
23:34 49.5 °F /  9.7 °C 25.5 °F /  -3.6 °C 30.12in /  1019.9hPa Calm   1.0mph /  1.6km/h 39% 0.00in /  0mm 0.0 W/m2
23:40 49.5 °F /  9.7 °C 25.0 °F /  -3.9 °C 30.12in /  1019.9hPa Calm   1.0mph /  1.6km/h 38% 0.00in /  0mm 0.0 W/m2
23:46 49.3 °F /  9.6 °C 25.3 °F /  -3.7 °C 30.12in /  1019.9hPa Calm   2.0mph /  3.2km/h 39% 0.00in /  0mm 0.0 W/m2
23:53 49.5 °F /  9.7 °C 25.5 °F /  -3.6 °C 30.12in /  1019.9hPa Calm   1.0mph /  1.6km/h 39% 0.00in /  0mm 0.0 W/m2
23:59 49.3 °F /  9.6 °C 26.1 °F /  -3.3 °C 30.12in /  1019.9hPa Calm     40% 0.00in /  0mm 0.0 W/m2
Olympia, Windhoek, Namibia
Compliments of Weather Underground - 3 mb